Time;durP1;ratioP1;P1;durP2;ratioP2;P2;SDS_P1;SDS_P2;PMS_P1;PMS_P2;Temp;Humidity;BMP_temperature;BMP_pressure;BME280_temperature;BME280_humidity;BME280_pressure;Samples;Min_cycle;Max_cycle;Signal;HPM_P1;HPM_P2
2022/03/10 00:00:18;;;;;;;37.45;17.90;;;2.10;1.00;;;;;;7369130;19;20024;-61
2022/03/10 00:02:47;;;;;;;35.25;18.05;;;2.40;1.00;;;;;;7366758;19;20473;-60
2022/03/10 00:05:19;;;;;;;36.30;17.60;;;2.40;1.00;;;;;;7366506;19;20594;-60
2022/03/10 00:07:49;;;;;;;35.47;17.58;;;2.30;1.00;;;;;;7369462;19;20021;-60
2022/03/10 00:10:19;;;;;;;32.58;17.20;;;2.20;1.00;;;;;;7391185;19;20014;-60
2022/03/10 00:12:52;;;;;;;41.67;19.15;;;2.20;1.00;;;;;;7362525;19;20473;-60
2022/03/10 00:15:24;;;;;;;36.28;18.10;;;2.20;1.00;;;;;;7368825;19;20369;-60
2022/03/10 00:17:55;;;;;;;41.03;18.58;;;2.20;1.00;;;;;;7365550;19;20010;-61
2022/03/10 00:20:25;;;;;;;39.42;18.60;;;2.10;1.00;;;;;;7366901;19;20018;-60
2022/03/10 00:22:56;;;;;;;35.78;18.67;;;2.00;1.00;;;;;;7364195;19;20017;-61
2022/03/10 00:25:27;;;;;;;40.22;18.13;;;2.00;1.00;;;;;;7387689;19;20480;-60
2022/03/10 00:27:59;;;;;;;34.58;17.73;;;2.00;1.00;;;;;;7366754;19;20081;-61
2022/03/10 00:30:29;;;;;;;34.63;17.67;;;2.00;1.00;;;;;;7367708;19;20006;-60
2022/03/10 00:32:59;;;;;;;34.80;16.55;;;2.00;1.00;;;;;;7363500;19;20483;-60
2022/03/10 00:35:29;;;;;;;37.05;18.25;;;1.90;1.00;;;;;;7367232;19;20021;-59
2022/03/10 00:38:02;;;;;;;36.58;18.38;;;1.80;1.00;;;;;;7366163;19;20381;-60
2022/03/10 00:40:31;;;;;;;41.88;18.05;;;1.70;1.00;;;;;;7389087;19;20014;-60
2022/03/10 00:43:04;;;;;;;35.85;17.98;;;1.70;1.00;;;;;;7362807;19;20060;-60
2022/03/10 00:45:34;;;;;;;34.58;18.70;;;1.80;1.00;;;;;;7366708;19;20023;-60
2022/03/10 00:48:04;;;;;;;35.35;18.15;;;1.70;1.00;;;;;;7365178;19;20091;-60
2022/03/10 00:50:34;;;;;;;35.83;17.80;;;1.80;1.00;;;;;;7367166;19;20489;-60
2022/03/10 00:53:04;;;;;;;38.97;19.15;;;1.80;1.00;;;;;;7362998;19;20909;-59
2022/03/10 00:55:34;;;;;;;34.10;18.40;;;1.70;1.00;;;;;;7385986;19;20017;-60
2022/03/10 00:58:06;;;;;;;36.58;19.05;;;1.60;1.00;;;;;;7365213;19;20086;-61
2022/03/10 01:00:36;;;;;;;38.35;19.38;;;1.70;1.00;;;;;;7365788;19;20010;-60
2022/03/10 01:03:07;;;;;;;39.85;19.38;;;1.70;1.00;;;;;;7362153;19;20006;-61
2022/03/10 01:05:37;;;;;;;43.08;18.58;;;1.60;1.00;;;;;;7366116;19;20045;-60
2022/03/10 01:08:07;;;;;;;35.13;17.88;;;1.60;1.00;;;;;;7364763;19;20022;-60
2022/03/10 01:10:37;;;;;;;43.78;19.15;;;1.60;1.00;;;;;;7382773;19;20097;-61
2022/03/10 01:13:14;;;;;;;34.63;18.40;;;1.60;1.00;;;;;;7385235;19;20474;-60
2022/03/10 01:15:46;;;;;;;37.42;19.10;;;1.50;1.00;;;;;;7366810;19;20014;-60
2022/03/10 01:18:17;;;;;;;37.75;19.05;;;1.50;1.00;;;;;;7365423;19;20021;-60
2022/03/10 01:20:47;;;;;;;36.08;18.67;;;1.50;1.00;;;;;;7365470;19;20014;-60
2022/03/10 01:23:17;;;;;;;31.52;18.00;;;1.40;1.00;;;;;;7360829;19;20039;-60
2022/03/10 01:25:52;;;;;;;41.60;18.63;;;1.50;1.00;;;;;;7366885;19;20475;-60
2022/03/10 01:28:25;;;;;;;36.60;18.98;;;1.60;1.00;;;;;;7385278;19;20714;-59
2022/03/10 01:30:54;;;;;;;35.05;18.88;;;1.60;1.00;;;;;;7364551;19;20126;-60
2022/03/10 01:33:24;;;;;;;39.90;19.55;;;1.50;1.00;;;;;;7361518;19;20010;-61
2022/03/10 01:35:54;;;;;;;39.45;19.30;;;1.40;1.00;;;;;;7364749;19;20053;-60
2022/03/10 01:38:25;;;;;;;36.85;19.13;;;1.30;1.00;;;;;;7365152;19;20010;-60
2022/03/10 01:40:55;;;;;;;40.38;20.30;;;1.30;1.00;;;;;;7364545;19;20498;-60
2022/03/10 01:43:27;;;;;;;43.22;19.85;;;1.30;1.00;;;;;;7381589;19;20097;-60
2022/03/10 01:45:57;;;;;;;39.28;19.40;;;1.40;1.00;;;;;;7364908;19;20035;-60
2022/03/10 01:48:27;;;;;;;42.60;21.23;;;1.40;1.00;;;;;;7365008;19;20086;-60
2022/03/10 01:50:57;;;;;;;41.25;20.20;;;1.40;1.00;;;;;;7365715;19;20350;-59
2022/03/10 01:53:27;;;;;;;42.80;21.35;;;1.50;1.00;;;;;;7360342;19;20015;-60
2022/03/10 01:55:57;;;;;;;40.10;20.20;;;1.50;1.00;;;;;;7364490;19;20024;-60
2022/03/10 01:58:29;;;;;;;42.97;19.63;;;1.50;1.00;;;;;;7385892;19;20044;-60
2022/03/10 02:01:00;;;;;;;41.50;20.23;;;1.50;1.00;;;;;;7365582;19;20011;-60
2022/03/10 02:03:30;;;;;;;38.60;20.30;;;1.40;1.00;;;;;;7359622;19;20018;-59
2022/03/10 02:06:00;;;;;;;43.20;20.25;;;1.40;1.00;;;;;;7364133;19;20014;-59
2022/03/10 02:11:18;;;;;;;40.53;20.92;;;1.40;1.00;;;;;;7363961;19;20083;-59
2022/03/10 02:13:51;;;;;;;41.53;20.05;;;1.30;1.00;;;;;;7357796;19;20497;-59
2022/03/10 02:19:04;;;;;;;47.28;20.95;;;1.30;1.00;;;;;;7362499;19;20015;-60
2022/03/10 02:21:34;;;;;;;39.25;19.27;;;1.40;1.00;;;;;;7365181;19;20219;-60
2022/03/10 02:24:07;;;;;;;42.33;20.27;;;1.20;1.00;;;;;;7356041;19;20051;-60
2022/03/10 02:26:37;;;;;;;39.30;19.48;;;1.10;1.00;;;;;;7364659;19;20011;-60
2022/03/10 02:29:07;;;;;;;40.97;20.02;;;0.90;1.00;;;;;;7363945;19;20129;-59
2022/03/10 02:31:38;;;;;;;41.60;19.40;;;0.70;1.00;;;;;;7385308;19;20018;-65
2022/03/10 02:34:07;;;;;;;37.97;20.17;;;0.60;1.00;;;;;;7377495;19;20095;-60
2022/03/10 02:36:37;;;;;;;38.33;19.88;;;0.50;1.00;;;;;;7371301;19;20022;-60
2022/03/10 02:39:10;;;;;;;41.38;20.63;;;0.40;1.00;;;;;;7367652;19;20384;-60
2022/03/10 02:41:40;;;;;;;37.45;19.23;;;0.40;1.00;;;;;;7372677;19;20018;-60
2022/03/10 02:44:10;;;;;;;33.55;18.77;;;0.50;1.00;;;;;;7363982;19;20011;-60
2022/03/10 02:46:39;;;;;;;37.83;19.92;;;0.60;1.00;;;;;;7372750;19;20014;-61
2022/03/10 02:49:09;;;;;;;40.28;19.88;;;0.50;1.00;;;;;;7393173;19;20619;-60
2022/03/10 02:51:39;;;;;;;47.10;20.35;;;0.40;1.00;;;;;;7371642;19;20025;-59
2022/03/10 02:54:12;;;;;;;40.17;20.55;;;0.20;1.00;;;;;;7362271;19;20569;-59
2022/03/10 02:56:43;;;;;;;34.97;19.60;;;0.10;1.00;;;;;;7372880;19;20006;-60
2022/03/10 02:59:13;;;;;;;37.55;20.25;;;0.00;1.00;;;;;;7370534;19;20101;-59
2022/03/10 03:01:43;;;;;;;36.60;20.30;;;0.00;1.00;;;;;;7372053;19;20014;-60
2022/03/10 03:04:12;;;;;;;37.95;19.73;;;-0.10;1.00;;;;;;7384556;19;20462;-59
2022/03/10 03:06:43;;;;;;;37.65;19.80;;;-0.10;1.00;;;;;;7371246;19;20010;-60
2022/03/10 03:09:16;;;;;;;37.90;20.13;;;-0.10;1.00;;;;;;7369784;19;20020;-59
2022/03/10 03:11:46;;;;;;;39.60;21.60;;;-0.30;1.00;;;;;;7372295;19;20502;-60
2022/03/10 03:14:16;;;;;;;38.15;20.08;;;-0.30;1.00;;;;;;7362653;19;20537;-59
2022/03/10 03:16:47;;;;;;;37.63;20.63;;;-0.20;1.00;;;;;;7370761;19;20014;-60
2022/03/10 03:19:17;;;;;;;49.20;20.40;;;-0.30;1.00;;;;;;7390228;19;20010;-59
2022/03/10 03:21:49;;;;;;;40.58;18.67;;;-0.20;1.00;;;;;;7367657;19;20122;-59
2022/03/10 03:24:22;;;;;;;37.13;19.83;;;0.10;1.00;;;;;;7360327;19;20016;-60
2022/03/10 03:26:52;;;;;;;38.83;19.63;;;0.30;1.00;;;;;;7371511;19;20021;-59
2022/03/10 03:29:22;;;;;;;39.08;20.10;;;0.30;1.00;;;;;;7371171;19;20015;-59
2022/03/10 03:31:51;;;;;;;44.50;19.67;;;0.30;1.00;;;;;;7370705;19;20652;-61
2022/03/10 03:34:21;;;;;;;35.42;18.25;;;0.20;1.00;;;;;;7383660;19;20018;-59
2022/03/10 03:36:53;;;;;;;36.10;18.98;;;0.20;1.00;;;;;;7370932;19;20760;-60
2022/03/10 03:39:25;;;;;;;41.67;19.45;;;0.10;1.00;;;;;;7367866;19;20006;-60
2022/03/10 03:41:55;;;;;;;35.40;18.10;;;0.00;1.00;;;;;;7370092;19;20011;-61
2022/03/10 03:44:25;;;;;;;36.92;18.55;;;0.10;1.00;;;;;;7361200;19;20044;-60
2022/03/10 03:46:55;;;;;;;39.78;19.15;;;0.10;1.00;;;;;;7368257;19;20079;-60
2022/03/10 03:49:25;;;;;;;37.05;19.60;;;0.10;1.00;;;;;;7391625;19;20074;-60
2022/03/10 03:51:55;;;;;;;35.95;18.77;;;0.30;1.00;;;;;;7370174;19;20012;-59
2022/03/10 03:54:27;;;;;;;40.70;18.92;;;0.30;1.00;;;;;;7360977;19;20006;-60
2022/03/10 03:56:57;;;;;;;36.35;19.27;;;0.40;1.00;;;;;;7369984;19;20021;-60
2022/03/10 03:59:27;;;;;;;37.53;18.85;;;0.40;1.00;;;;;;7369654;19;20070;-60
2022/03/10 04:01:57;;;;;;;41.08;18.92;;;0.40;1.00;;;;;;7370439;19;20030;-60
2022/03/10 04:04:27;;;;;;;40.28;19.75;;;0.20;1.00;;;;;;7382638;19;20097;-59
2022/03/10 04:06:57;;;;;;;33.40;18.73;;;0.10;1.00;;;;;;7369525;19;20407;-62
2022/03/10 04:09:30;;;;;;;38.10;18.92;;;0.00;1.00;;;;;;7368794;19;20078;-60
2022/03/10 04:12:00;;;;;;;37.17;18.40;;;0.10;1.00;;;;;;7370822;19;20016;-60
2022/03/10 04:14:32;;;;;;;38.83;19.77;;;0.00;1.00;;;;;;7360590;19;20018;-60
2022/03/10 04:17:02;;;;;;;38.10;20.77;;;0.10;1.00;;;;;;7368274;19;20000;-59
2022/03/10 04:19:38;;;;;;;35.88;19.70;;;0.10;1.00;;;;;;7389472;19;20031;-58
2022/03/10 04:22:07;;;;;;;37.05;19.92;;;0.00;1.00;;;;;;7368932;19;20015;-59
2022/03/10 04:24:40;;;;;;;40.25;20.58;;;0.00;1.00;;;;;;7362439;19;20025;-59
2022/03/10 04:27:10;;;;;;;39.45;20.48;;;-0.10;1.00;;;;;;7367860;19;20021;-60
2022/03/10 04:29:40;;;;;;;34.70;19.30;;;0.00;1.00;;;;;;7368566;19;20089;-60
2022/03/10 04:32:10;;;;;;;37.03;19.52;;;-0.10;1.00;;;;;;7367582;19;20018;-59
2022/03/10 04:34:40;;;;;;;36.20;19.90;;;-0.10;1.00;;;;;;7384696;19;20356;-59
2022/03/10 04:37:10;;;;;;;41.53;21.02;;;-0.10;1.00;;;;;;7367487;19;20573;-59
2022/03/10 04:39:43;;;;;;;38.35;20.38;;;-0.10;1.00;;;;;;7367717;19;20017;-60
2022/03/10 04:42:12;;;;;;;41.90;21.70;;;0.00;1.00;;;;;;7366531;19;20072;-59
2022/03/10 04:44:42;;;;;;;43.63;21.63;;;0.00;1.00;;;;;;7362987;19;20013;-59
2022/03/10 04:47:12;;;;;;;41.10;21.10;;;-0.10;1.00;;;;;;7367113;19;20018;-59
2022/03/10 04:49:42;;;;;;;39.90;20.90;;;-0.10;1.00;;;;;;7373067;19;20073;-60
2022/03/10 04:52:12;;;;;;;41.40;21.13;;;-0.10;1.00;;;;;;7387968;19;20007;-59
2022/03/10 04:54:44;;;;;;;46.22;21.92;;;-0.10;1.00;;;;;;7362495;19;20006;-59
2022/03/10 04:57:14;;;;;;;45.72;21.63;;;-0.10;1.00;;;;;;7366529;19;20077;-59
2022/03/10 04:59:44;;;;;;;39.05;19.98;;;0.00;1.00;;;;;;7367364;19;20014;-59
2022/03/10 05:02:14;;;;;;;40.33;20.92;;;0.00;1.00;;;;;;7365402;19;20010;-59
2022/03/10 05:04:44;;;;;;;40.75;19.60;;;0.00;1.00;;;;;;7363257;19;20015;-59
2022/03/10 05:07:14;;;;;;;40.60;21.83;;;0.00;1.00;;;;;;7388507;19;20354;-58
2022/03/10 05:09:46;;;;;;;40.50;21.08;;;0.00;1.00;;;;;;7365734;19;20014;-59
2022/03/10 05:12:16;;;;;;;40.33;19.30;;;0.10;1.00;;;;;;7364872;19;20010;-59
2022/03/10 05:14:46;;;;;;;37.70;21.05;;;0.10;1.00;;;;;;7362192;19;20498;-59
2022/03/10 05:17:16;;;;;;;41.60;20.35;;;0.10;1.00;;;;;;7366051;19;20478;-59
2022/03/10 05:19:46;;;;;;;37.45;19.35;;;0.10;1.00;;;;;;7366751;19;20025;-60
2022/03/10 05:22:16;;;;;;;36.60;18.98;;;0.20;1.00;;;;;;7386039;19;20022;-58
2022/03/10 05:24:49;;;;;;;36.13;19.30;;;0.20;1.00;;;;;;7361547;19;20016;-58
2022/03/10 05:27:19;;;;;;;36.50;20.42;;;0.30;1.00;;;;;;7365440;19;20010;-60
2022/03/10 05:29:49;;;;;;;39.67;19.13;;;0.30;1.00;;;;;;7365824;19;20025;-59
2022/03/10 05:32:19;;;;;;;34.78;19.10;;;0.30;1.00;;;;;;7363685;19;20007;-59
2022/03/10 05:34:49;;;;;;;40.08;19.52;;;0.30;1.00;;;;;;7362391;19;20018;-59
2022/03/10 05:37:19;;;;;;;40.13;19.90;;;0.30;1.00;;;;;;7386482;19;20506;-59
2022/03/10 05:39:52;;;;;;;42.97;22.13;;;0.30;1.00;;;;;;7364966;19;20402;-59
2022/03/10 05:42:21;;;;;;;40.95;19.73;;;0.30;1.00;;;;;;7362639;19;20014;-59
2022/03/10 05:44:51;;;;;;;39.30;20.02;;;0.30;1.00;;;;;;7362457;19;20015;-60
2022/03/10 05:47:21;;;;;;;41.95;20.38;;;0.20;1.00;;;;;;7365600;19;20010;-59
2022/03/10 05:49:51;;;;;;;43.38;20.27;;;0.20;1.00;;;;;;7366216;19;20066;-60
2022/03/10 05:52:21;;;;;;;41.28;21.63;;;0.20;1.00;;;;;;7383388;19;20073;-58
2022/03/10 05:54:56;;;;;;;42.65;20.80;;;0.20;1.00;;;;;;7361626;19;20021;-58
2022/03/10 05:57:27;;;;;;;37.53;19.67;;;0.10;1.00;;;;;;7364711;19;20017;-59
2022/03/10 05:59:56;;;;;;;40.55;19.45;;;0.10;1.00;;;;;;7364039;19;20393;-59
2022/03/10 06:02:27;;;;;;;41.53;20.58;;;0.00;1.00;;;;;;7360599;19;20554;-59
2022/03/10 06:05:01;;;;;;;41.10;20.23;;;0.00;1.00;;;;;;7362391;19;20022;-59
2022/03/10 06:07:31;;;;;;;42.30;19.77;;;0.10;1.00;;;;;;7386699;19;20034;-58
2022/03/10 06:10:04;;;;;;;40.78;20.65;;;0.10;1.00;;;;;;7362213;19;20098;-59
2022/03/10 06:12:35;;;;;;;36.38;19.38;;;0.10;1.00;;;;;;7359857;19;20062;-58
2022/03/10 06:15:07;;;;;;;37.60;19.80;;;0.10;1.00;;;;;;7362642;19;20007;-61
2022/03/10 06:17:37;;;;;;;36.03;19.77;;;0.20;1.00;;;;;;7364565;19;20554;-60
2022/03/10 06:20:08;;;;;;;39.78;21.42;;;0.30;1.00;;;;;;7365084;19;20017;-58
2022/03/10 06:22:38;;;;;;;39.70;19.67;;;0.40;1.00;;;;;;7380681;19;20013;-58
2022/03/10 06:25:13;;;;;;;37.63;20.17;;;0.50;1.00;;;;;;7360960;19;20015;-59
2022/03/10 06:27:43;;;;;;;37.67;19.40;;;0.50;1.00;;;;;;7363429;19;20086;-59
2022/03/10 06:30:14;;;;;;;34.25;18.65;;;0.50;1.00;;;;;;7362329;19;20102;-59
2022/03/10 06:32:44;;;;;;;34.55;18.92;;;0.70;1.00;;;;;;7359298;19;20028;-59
2022/03/10 06:35:14;;;;;;;37.47;18.98;;;0.70;1.00;;;;;;7359820;19;20425;-59
2022/03/10 06:37:46;;;;;;;34.92;17.08;;;0.80;1.00;;;;;;7363883;19;20014;-60
2022/03/10 06:40:19;;;;;;;38.67;17.38;;;0.80;1.00;;;;;;7384881;19;20010;-60
2022/03/10 06:42:49;;;;;;;35.90;19.35;;;0.90;1.00;;;;;;7357741;19;20025;-60
2022/03/10 06:45:19;;;;;;;41.35;18.08;;;1.00;1.00;;;;;;7360258;19;20162;-60
2022/03/10 06:47:48;;;;;;;37.80;17.98;;;1.10;1.00;;;;;;7362810;19;20312;-60
2022/03/10 06:50:19;;;;;;;36.10;18.13;;;1.20;1.00;;;;;;7363373;19;20554;-60
2022/03/10 06:52:51;;;;;;;41.63;19.17;;;1.30;1.00;;;;;;7358588;19;20106;-60
2022/03/10 06:55:24;;;;;;;44.05;20.30;;;1.50;1.00;;;;;;7381672;19;20432;-60
2022/03/10 06:57:54;;;;;;;35.60;19.63;;;1.60;1.00;;;;;;7362252;19;20413;-59
2022/03/10 07:00:25;;;;;;;39.65;19.15;;;1.80;1.00;;;;;;7362120;19;20028;-60
2022/03/10 07:02:54;;;;;;;37.25;19.38;;;1.80;1.00;;;;;;7357370;19;20328;-59
2022/03/10 07:05:24;;;;;;;35.30;18.98;;;1.90;1.00;;;;;;7359225;19;20041;-60
2022/03/10 07:07:54;;;;;;;39.58;18.75;;;2.00;1.00;;;;;;7361978;19;20019;-60
2022/03/10 07:10:30;;;;;;;43.35;19.73;;;2.10;1.00;;;;;;7384155;19;20375;-60
2022/03/10 07:13:00;;;;;;;37.40;18.85;;;2.20;1.00;;;;;;7357313;19;20154;-61
2022/03/10 07:15:29;;;;;;;34.13;19.08;;;2.30;1.00;;;;;;7361541;19;20007;-60
2022/03/10 07:18:00;;;;;;;35.65;20.05;;;2.50;1.00;;;;;;7362032;19;20983;-60
2022/03/10 07:20:29;;;;;;;36.45;19.70;;;2.50;1.00;;;;;;7362210;19;20021;-60
2022/03/10 07:23:00;;;;;;;42.40;19.20;;;2.60;1.00;;;;;;7361537;19;20110;-60
2022/03/10 07:25:32;;;;;;;39.35;19.88;;;2.70;1.00;;;;;;7388396;19;20522;-60
2022/03/10 07:28:02;;;;;;;46.55;18.90;;;2.80;1.00;;;;;;7368021;19;20013;-60
2022/03/10 07:30:32;;;;;;;36.85;18.52;;;2.90;1.00;;;;;;7370211;19;20070;-59
2022/03/10 07:33:02;;;;;;;33.28;19.00;;;3.00;1.00;;;;;;7364697;19;20014;-60
2022/03/10 07:35:32;;;;;;;35.58;19.10;;;3.10;1.00;;;;;;7364610;19;20145;-60
2022/03/10 07:38:02;;;;;;;45.03;18.15;;;3.20;1.00;;;;;;7368391;19;20023;-60
2022/03/10 07:40:35;;;;;;;32.67;16.67;;;3.40;1.00;;;;;;7391111;19;20105;-60
2022/03/10 07:43:05;;;;;;;36.75;17.13;;;3.40;1.00;;;;;;7361240;19;20011;-59
2022/03/10 07:45:36;;;;;;;30.38;17.52;;;3.60;1.00;;;;;;7366760;19;20027;-60
2022/03/10 07:48:07;;;;;;;45.80;17.88;;;3.70;1.00;;;;;;7367011;19;20011;-60
2022/03/10 07:50:37;;;;;;;32.45;15.07;;;3.80;1.00;;;;;;7368715;19;20550;-60
2022/03/10 07:53:07;;;;;;;33.38;17.50;;;3.80;1.00;;;;;;7363526;19;20098;-59
2022/03/10 07:55:41;;;;;;;26.38;15.75;;;4.00;1.00;;;;;;7387168;19;20026;-60
2022/03/10 07:58:11;;;;;;;31.83;16.00;;;4.00;1.00;;;;;;7367682;19;20018;-60
2022/03/10 08:00:41;;;;;;;31.60;16.65;;;4.20;1.00;;;;;;7367605;19;20003;-58
2022/03/10 08:03:12;;;;;;;27.05;14.70;;;4.30;1.00;;;;;;7362639;19;20009;-61
2022/03/10 08:05:52;;;;;;;30.05;16.10;;;4.40;1.00;;;;;;7364402;19;20003;-63
2022/03/10 08:08:22;;;;;;;27.48;14.70;;;4.60;1.00;;;;;;7367818;19;20011;-60
2022/03/10 08:10:54;;;;;;;32.88;16.27;;;4.80;1.00;;;;;;7367137;19;20011;-59
2022/03/10 08:13:26;;;;;;;29.83;15.93;;;4.90;1.00;;;;;;7383294;19;20014;-60
2022/03/10 08:15:56;;;;;;;27.77;14.63;;;4.90;1.00;;;;;;7366422;19;20006;-60
2022/03/10 08:18:26;;;;;;;38.58;15.95;;;5.00;1.00;;;;;;7367844;19;20009;-59
2022/03/10 08:20:56;;;;;;;25.35;14.93;;;5.10;1.00;;;;;;7366679;19;20092;-60
2022/03/10 08:23:26;;;;;;;30.15;16.45;;;5.30;1.00;;;;;;7361368;19;20500;-60
2022/03/10 08:25:59;;;;;;;28.85;17.50;;;5.40;1.00;;;;;;7366247;19;20014;-61
2022/03/10 08:28:29;;;;;;;39.42;18.10;;;5.50;1.00;;;;;;7388310;19;20018;-60
2022/03/10 08:30:59;;;;;;;36.97;18.33;;;5.60;1.00;;;;;;7368580;19;20109;-60
2022/03/10 08:33:29;;;;;;;33.88;17.67;;;5.70;1.00;;;;;;7361912;19;20017;-61
2022/03/10 08:35:59;;;;;;;30.05;18.00;;;5.70;1.00;;;;;;7365242;19;20030;-60
2022/03/10 08:38:30;;;;;;;33.92;17.42;;;5.80;1.00;;;;;;7367602;19;20121;-60
2022/03/10 08:41:02;;;;;;;39.40;18.58;;;5.80;1.00;;;;;;7366870;19;20099;-60
2022/03/10 08:43:33;;;;;;;30.13;17.20;;;6.00;1.00;;;;;;7382032;19;20085;-60
2022/03/10 08:46:04;;;;;;;33.40;17.35;;;6.20;1.00;;;;;;7366160;19;20038;-59
2022/03/10 08:48:34;;;;;;;32.58;17.25;;;6.30;1.00;;;;;;7365327;19;20039;-60
2022/03/10 08:51:06;;;;;;;30.58;17.38;;;6.40;1.00;;;;;;7366294;19;20011;-61
2022/03/10 08:53:37;;;;;;;27.23;16.35;;;6.60;1.00;;;;;;7362515;19;20014;-61
2022/03/10 08:56:09;;;;;;;29.95;16.38;;;6.80;1.00;;;;;;7366288;19;20010;-59
2022/03/10 08:58:39;;;;;;;24.23;14.20;;;7.00;1.00;;;;;;7387208;19;20010;-59
2022/03/10 09:01:09;;;;;;;20.88;11.82;;;7.20;1.00;;;;;;7366228;19;20031;-60
2022/03/10 09:03:55;;;;;;;24.48;9.93;;;7.50;1.00;;;;;;7357708;19;20015;-61
2022/03/10 09:06:27;;;;;;;18.40;10.68;;;7.60;1.00;;;;;;7367136;19;20027;-61
2022/03/10 09:08:59;;;;;;;18.08;10.27;;;7.70;1.00;;;;;;7365711;19;20027;-61
2022/03/10 09:11:32;;;;;;;20.05;10.45;;;7.80;1.00;;;;;;7365097;19;20015;-60
2022/03/10 09:14:02;;;;;;;15.18;9.23;;;7.90;1.00;;;;;;7358732;19;20568;-60
2022/03/10 09:16:32;;;;;;;15.40;8.85;;;8.10;1.00;;;;;;7388758;19;20014;-61
2022/03/10 09:19:03;;;;;;;18.63;9.98;;;8.00;1.00;;;;;;7364128;19;20514;-61
2022/03/10 09:21:32;;;;;;;14.98;8.68;;;8.10;1.00;;;;;;7365042;19;20026;-61
2022/03/10 09:24:02;;;;;;;16.15;8.77;;;8.30;1.00;;;;;;7356404;19;20716;-59
2022/03/10 09:26:35;;;;;;;14.05;8.32;;;8.40;1.00;;;;;;7365904;19;20522;-60
2022/03/10 09:29:05;;;;;;;16.65;9.10;;;8.60;1.00;;;;;;7365083;19;20090;-60
2022/03/10 09:31:35;;;;;;;17.00;10.13;;;8.70;1.00;;;;;;7387776;19;20025;-61
2022/03/10 09:34:05;;;;;;;14.73;9.00;;;8.90;1.00;;;;;;7357121;19;20015;-60
2022/03/10 09:36:35;;;;;;;17.48;8.90;;;8.90;1.00;;;;;;7366060;19;20082;-60
2022/03/10 09:39:05;;;;;;;16.98;10.07;;;8.90;1.00;;;;;;7365116;19;20019;-59
2022/03/10 09:41:40;;;;;;;15.20;8.90;;;9.00;1.00;;;;;;7366291;19;20144;-60
2022/03/10 09:44:16;;;;;;;14.25;9.00;;;9.00;1.00;;;;;;7354320;19;20051;-60
2022/03/10 09:46:47;;;;;;;14.60;9.38;;;9.10;1.00;;;;;;7365649;19;20022;-60
2022/03/10 09:49:17;;;;;;;13.82;8.82;;;9.20;1.00;;;;;;7385525;19;20065;-59
2022/03/10 09:51:47;;;;;;;14.98;8.50;;;9.40;1.00;;;;;;7364876;19;20019;-60
2022/03/10 09:54:17;;;;;;;17.92;8.88;;;9.50;1.00;;;;;;7356880;19;20007;-60
2022/03/10 09:56:50;;;;;;;13.05;7.72;;;9.60;1.00;;;;;;7365818;19;20113;-60
2022/03/10 09:59:23;;;;;;;15.77;8.00;;;9.70;1.00;;;;;;7363997;19;20006;-60
2022/03/10 10:01:54;;;;;;;13.93;8.07;;;9.80;1.00;;;;;;7364453;19;20510;-60
2022/03/10 10:04:24;;;;;;;14.13;8.07;;;10.00;1.00;;;;;;7376561;19;20011;-61
2022/03/10 10:07:06;;;;;;;11.85;8.10;;;10.10;1.00;;;;;;7365698;19;20010;-60
2022/03/10 10:09:47;;;;;;;12.55;8.18;;;10.20;1.00;;;;;;7365028;19;20094;-61
2022/03/10 10:12:22;;;;;;;10.35;6.70;;;10.40;1.00;;;;;;7362230;19;20078;-61
2022/03/10 10:14:53;;;;;;;14.30;6.93;;;10.40;1.00;;;;;;7362695;19;20011;-60
2022/03/10 10:17:30;;;;;;;11.65;7.07;;;10.70;1.00;;;;;;7364070;19;20535;-59
2022/03/10 10:20:20;;;;;;;10.00;6.10;;;10.70;1.00;;;;;;7365773;19;20010;-60
2022/03/10 10:22:51;;;;;;;9.68;6.07;;;10.90;1.00;;;;;;7359629;19;20024;-60
2022/03/10 10:25:23;;;;;;;10.80;5.72;;;11.10;1.00;;;;;;7382598;19;20573;-60
2022/03/10 10:27:55;;;;;;;11.82;6.53;;;11.40;1.00;;;;;;7363108;19;20017;-60
2022/03/10 10:30:26;;;;;;;12.90;7.55;;;11.40;1.00;;;;;;7364657;19;20038;-59
2022/03/10 10:32:56;;;;;;;8.30;5.22;;;11.50;1.00;;;;;;7357077;19;20731;-60
2022/03/10 10:35:26;;;;;;;11.13;5.30;;;11.60;1.00;;;;;;7360310;19;20514;-59
2022/03/10 10:37:58;;;;;;;8.65;5.20;;;11.70;1.00;;;;;;7363846;19;20134;-60
2022/03/10 10:40:31;;;;;;;8.65;4.85;;;11.60;1.00;;;;;;7386094;19;20027;-60
2022/03/10 10:43:05;;;;;;;9.27;4.70;;;11.70;1.00;;;;;;7357852;19;20045;-61
2022/03/10 10:45:37;;;;;;;6.57;4.38;;;11.80;1.00;;;;;;7362011;19;20086;-60
2022/03/10 10:48:09;;;;;;;9.18;4.72;;;12.00;1.00;;;;;;7363532;19;20094;-61
2022/03/10 10:50:41;;;;;;;9.10;5.03;;;12.00;1.00;;;;;;7363655;19;20018;-60
2022/03/10 10:53:11;;;;;;;7.60;4.40;;;12.20;1.00;;;;;;7358997;19;20006;-61
2022/03/10 10:55:45;;;;;;;8.40;4.40;;;12.30;1.00;;;;;;7361780;19;20133;-61
2022/03/10 10:58:18;;;;;;;8.32;4.03;;;12.20;1.00;;;;;;7391757;19;20085;-60
2022/03/10 11:00:50;;;;;;;8.65;4.20;;;12.20;1.00;;;;;;7369599;19;20108;-60
2022/03/10 11:03:24;;;;;;;6.57;3.80;;;12.50;1.00;;;;;;7364664;19;20027;-60
2022/03/10 11:05:56;;;;;;;8.40;4.40;;;12.50;1.00;;;;;;7367686;19;20017;-60
2022/03/10 11:08:28;;;;;;;5.97;4.28;;;12.50;1.00;;;;;;7369007;19;20014;-60
2022/03/10 11:10:58;;;;;;;6.25;3.97;;;12.60;1.00;;;;;;7370037;19;20082;-61
2022/03/10 11:13:31;;;;;;;8.82;5.60;;;12.60;1.00;;;;;;7386578;19;20538;-60
2022/03/10 11:16:01;;;;;;;6.28;3.90;;;12.90;1.00;;;;;;7366960;19;20069;-61
2022/03/10 11:18:32;;;;;;;6.13;3.40;;;12.80;1.00;;;;;;7367988;19;20006;-60
2022/03/10 11:21:09;;;;;;;5.82;3.33;;;12.70;1.00;;;;;;7369827;19;20114;-60
2022/03/10 11:23:50;;;;;;;9.65;3.47;;;12.70;1.00;;;;;;7364387;19;20046;-61
2022/03/10 11:26:27;;;;;;;5.53;3.88;;;12.80;1.00;;;;;;7367824;19;20189;-60
2022/03/10 11:29:01;;;;;;;5.63;4.03;;;12.70;1.00;;;;;;7368955;19;20032;-61
2022/03/10 11:31:34;;;;;;;5.15;3.53;;;12.80;1.00;;;;;;7382773;19;20021;-61
2022/03/10 11:34:04;;;;;;;6.93;3.28;;;12.90;1.00;;;;;;7358152;19;20801;-61
2022/03/10 11:36:36;;;;;;;4.70;3.10;;;13.10;1.00;;;;;;7367667;19;20022;-61
2022/03/10 11:39:12;;;;;;;4.93;3.53;;;13.20;1.00;;;;;;7367969;19;20017;-60
2022/03/10 11:41:47;;;;;;;4.80;3.42;;;13.00;1.00;;;;;;7369045;19;20011;-61
2022/03/10 11:44:22;;;;;;;5.90;3.58;;;13.00;1.00;;;;;;7361710;19;20015;-62
2022/03/10 11:46:57;;;;;;;6.30;3.50;;;13.10;1.00;;;;;;7369700;19;20055;-61
2022/03/10 11:49:29;;;;;;;5.53;3.30;;;13.10;1.00;;;;;;7390051;19;21395;-62
2022/03/10 11:52:03;;;;;;;5.18;3.20;;;13.10;1.00;;;;;;7367869;19;20402;-62
2022/03/10 11:54:35;;;;;;;5.25;3.60;;;13.40;1.00;;;;;;7361133;19;20035;-61
2022/03/10 11:57:07;;;;;;;7.63;3.95;;;13.40;1.00;;;;;;7369491;19;20010;-61
2022/03/10 11:59:54;;;;;;;5.22;3.58;;;13.30;1.00;;;;;;7368808;19;20685;-60
2022/03/10 12:02:43;;;;;;;5.25;3.00;;;13.40;1.00;;;;;;7363733;19;20020;-64
2022/03/10 12:05:17;;;;;;;5.00;2.90;;;13.40;1.00;;;;;;7366162;19;20022;-61
2022/03/10 12:07:53;;;;;;;4.07;2.92;;;13.60;1.00;;;;;;7366762;19;20758;-61
2022/03/10 12:10:43;;;;;;;5.95;3.53;;;13.70;1.00;;;;;;7389503;19;20074;-60
2022/03/10 12:13:29;;;;;;;5.20;2.92;;;13.40;1.00;;;;;;7362181;19;20475;-61
2022/03/10 12:16:05;;;;;;;9.38;3.15;;;13.60;1.00;;;;;;7365806;19;20413;-61
2022/03/10 12:18:43;;;;;;;8.48;3.60;;;13.60;1.00;;;;;;7367417;19;20010;-61
2022/03/10 12:21:22;;;;;;;4.05;2.88;;;13.60;1.00;;;;;;7367778;19;20440;-62
2022/03/10 12:23:57;;;;;;;4.47;2.85;;;13.70;1.00;;;;;;7359877;19;20010;-62
2022/03/10 12:26:27;;;;;;;;;;;13.50;1.00;;;;;;7369446;19;20465;-61
2022/03/10 12:28:58;;;;;;;4.55;3.13;;;13.60;1.00;;;;;;7367875;19;19930;-61
2022/03/10 12:31:33;;;;;;;3.85;3.00;;;13.60;1.00;;;;;;7389292;19;20558;-62
2022/03/10 12:34:06;;;;;;;11.52;5.68;;;13.60;1.00;;;;;;7357604;19;20466;-61
2022/03/10 12:36:37;;;;;;;7.22;3.33;;;13.60;1.00;;;;;;7368332;19;20006;-61
2022/03/10 12:39:10;;;;;;;8.95;3.65;;;13.60;1.00;;;;;;7366133;19;20010;-61
2022/03/10 12:41:43;;;;;;;5.63;3.53;;;13.50;1.00;;;;;;7365026;19;20022;-61
2022/03/10 12:44:14;;;;;;;7.00;3.63;;;13.40;1.00;;;;;;7356683;19;20017;-61
2022/03/10 12:46:47;;;;;;;8.23;3.85;;;13.70;1.00;;;;;;7366331;19;20018;-60
2022/03/10 12:49:26;;;;;;;8.05;3.92;;;13.80;1.00;;;;;;7388263;19;20058;-61
2022/03/10 12:51:58;;;;;;;8.65;4.15;;;13.80;1.00;;;;;;7367104;19;20039;-61
2022/03/10 12:54:31;;;;;;;14.45;6.95;;;13.80;1.00;;;;;;7358380;19;20032;-61
2022/03/10 12:57:01;;;;;;;4.90;3.28;;;13.80;1.00;;;;;;7367273;19;20002;-62
2022/03/10 12:59:34;;;;;;;5.00;3.53;;;14.00;1.00;;;;;;7368012;19;20053;-61
2022/03/10 13:02:18;;;;;;;8.20;3.80;;;13.90;1.00;;;;;;7366398;19;20014;-60
2022/03/10 13:04:50;;;;;;;4.68;3.13;;;13.70;1.00;;;;;;7362073;19;20025;-62
2022/03/10 13:07:23;;;;;;;6.18;4.10;;;13.80;1.00;;;;;;7387833;19;20435;-61
2022/03/10 13:09:55;;;;;;;7.45;3.80;;;13.80;1.00;;;;;;7363902;19;20018;-60
2022/03/10 13:12:29;;;;;;;7.25;3.65;;;13.80;1.00;;;;;;7362309;19;20078;-61
2022/03/10 13:15:00;;;;;;;5.93;4.05;;;13.80;1.00;;;;;;7363628;19;20022;-60